createdAt,value
2023-02-23T00:01:54.664Z,30.00
2023-02-23T00:04:21.476Z,28.27
2023-02-23T00:06:48.030Z,28.77
2023-02-23T00:09:24.499Z,30.95
2023-02-23T00:11:57.759Z,28.20
2023-02-23T00:14:28.931Z,29.23
2023-02-23T00:16:56.227Z,32.17
2023-02-23T00:19:24.709Z,30.73
2023-02-23T00:21:52.299Z,26.20
2023-02-23T00:24:20.501Z,33.58
2023-02-23T00:26:47.972Z,28.45
2023-02-23T00:29:17.258Z,28.95
2023-02-23T00:31:45.957Z,31.17
2023-02-23T00:34:15.316Z,29.13
2023-02-23T00:36:42.867Z,30.50
2023-02-23T00:39:21.334Z,30.90
2023-02-23T00:41:48.946Z,28.90
2023-02-23T00:44:16.436Z,28.25
2023-02-23T00:46:44.537Z,31.58
2023-02-23T00:49:13.082Z,29.48
2023-02-23T00:51:41.347Z,30.00
2023-02-23T00:54:10.298Z,27.58
2023-02-23T00:56:36.728Z,30.05
2023-02-23T00:59:03.175Z,27.90
2023-02-23T01:01:29.832Z,29.98
2023-02-23T01:03:56.326Z,30.48
2023-02-23T01:06:23.909Z,29.83
2023-02-23T01:08:56.939Z,28.75
2023-02-23T01:11:31.037Z,32.30
2023-02-23T01:13:59.084Z,29.88
2023-02-23T01:16:28.911Z,28.70
2023-02-23T01:18:59.496Z,28.90
2023-02-23T01:21:32.916Z,26.98
2023-02-23T01:23:59.793Z,34.00
2023-02-23T01:26:30.069Z,28.38
2023-02-23T01:28:58.817Z,34.22
2023-02-23T01:31:25.697Z,30.55
2023-02-23T01:34:00.555Z,29.05
2023-02-23T01:36:32.729Z,33.42
2023-02-23T01:39:00.209Z,30.38
2023-02-23T01:41:33.013Z,29.73
2023-02-23T01:44:12.555Z,28.63
2023-02-23T01:46:41.501Z,31.38
2023-02-23T01:49:15.414Z,29.70
2023-02-23T01:51:49.168Z,29.50
2023-02-23T01:54:28.938Z,31.50
2023-02-23T01:56:58.484Z,30.70
2023-02-23T01:59:35.057Z,30.00
2023-02-23T02:02:04.989Z,28.38
2023-02-23T02:04:44.615Z,30.38
2023-02-23T02:07:21.327Z,26.48
2023-02-23T02:10:08.211Z,30.17
2023-02-23T02:12:34.634Z,27.90
2023-02-23T02:15:04.848Z,29.83
2023-02-23T02:17:53.308Z,26.80
2023-02-23T02:20:50.368Z,29.63
2023-02-23T02:23:28.955Z,29.15
2023-02-23T02:26:17.876Z,28.77
2023-02-23T02:29:13.994Z,27.33
2023-02-23T02:32:02.027Z,25.92
2023-02-23T02:35:05.670Z,29.00
2023-02-23T02:37:48.026Z,28.88
2023-02-23T02:40:40.574Z,30.67
2023-02-23T02:43:24.106Z,28.10
2023-02-23T02:46:11.666Z,28.75
2023-02-23T02:48:42.264Z,28.92
2023-02-23T02:51:24.210Z,30.25
2023-02-23T02:54:06.581Z,24.63
2023-02-23T02:56:40.226Z,27.08
2023-02-23T02:59:38.107Z,28.33
2023-02-23T03:02:25.191Z,31.15
2023-02-23T03:05:10.137Z,29.13
2023-02-23T03:08:01.297Z,26.98
2023-02-23T03:11:05.544Z,30.15
2023-02-23T03:14:10.849Z,26.30
2023-02-23T03:17:09.790Z,30.02
2023-02-23T03:20:12.251Z,33.58
2023-02-23T03:23:10.832Z,27.83
2023-02-23T03:26:19.274Z,26.60
2023-02-23T03:29:23.156Z,29.02
2023-02-23T03:32:19.594Z,30.55
2023-02-23T03:35:13.608Z,36.75
2023-02-23T03:38:07.121Z,36.30
2023-02-23T03:40:57.436Z,31.00
2023-02-23T03:43:48.655Z,33.85
2023-02-23T03:46:36.998Z,32.72
2023-02-23T03:49:27.771Z,34.53
2023-02-23T03:52:20.957Z,35.05
2023-02-23T03:55:15.517Z,32.65
2023-02-23T03:58:05.180Z,34.38
2023-02-23T04:00:54.755Z,33.50
2023-02-23T04:03:41.202Z,35.83
2023-02-23T04:06:31.508Z,36.28
2023-02-23T04:09:20.893Z,30.73
2023-02-23T04:12:25.622Z,39.65
2023-02-23T04:15:08.194Z,35.88
2023-02-23T04:17:35.259Z,34.00
2023-02-23T04:20:02.632Z,38.83
2023-02-23T04:22:29.221Z,36.95
2023-02-23T04:24:56.181Z,34.38
2023-02-23T04:27:22.634Z,38.95
2023-02-23T04:29:49.047Z,34.85
2023-02-23T04:32:19.070Z,36.40
2023-02-23T04:34:45.582Z,38.15
2023-02-23T04:37:13.274Z,34.75
2023-02-23T04:39:40.281Z,34.53
2023-02-23T04:42:06.733Z,32.35
2023-02-23T04:44:33.160Z,39.22
2023-02-23T04:46:59.605Z,35.35
2023-02-23T04:49:26.062Z,42.00
2023-02-23T04:51:52.488Z,35.58
2023-02-23T04:54:19.228Z,35.45
2023-02-23T04:56:45.850Z,30.83
2023-02-23T04:59:13.318Z,39.50
2023-02-23T05:01:39.874Z,36.90
2023-02-23T05:04:06.372Z,34.40
2023-02-23T05:06:33.213Z,35.97
2023-02-23T05:08:59.669Z,31.67
2023-02-23T05:11:27.738Z,42.83
2023-02-23T05:13:54.592Z,32.85
2023-02-23T05:16:21.382Z,34.60
2023-02-23T05:18:48.158Z,32.13
2023-02-23T05:21:14.630Z,36.35
2023-02-23T05:23:41.220Z,36.38
2023-02-23T05:26:10.913Z,33.38
2023-02-23T05:28:39.323Z,36.95
2023-02-23T05:31:06.544Z,33.53
2023-02-23T05:33:34.351Z,33.60
2023-02-23T05:36:04.826Z,34.72
2023-02-23T05:38:31.238Z,34.60
2023-02-23T05:40:57.711Z,33.22
2023-02-23T05:43:24.155Z,31.40
2023-02-23T05:45:50.716Z,32.40
2023-02-23T05:48:17.229Z,34.30
2023-02-23T05:50:43.760Z,34.90
2023-02-23T05:53:10.411Z,34.65
2023-02-23T05:55:37.768Z,34.08
2023-02-23T05:58:04.218Z,33.35
2023-02-23T06:00:30.701Z,33.72
2023-02-23T06:02:57.235Z,35.78
2023-02-23T06:05:23.690Z,34.30
2023-02-23T06:07:50.177Z,36.08
2023-02-23T06:10:16.859Z,38.15
2023-02-23T06:12:43.292Z,39.33
2023-02-23T06:15:10.209Z,38.58
2023-02-23T06:17:36.692Z,35.75
2023-02-23T06:20:04.867Z,35.10
2023-02-23T06:22:31.322Z,37.03
2023-02-23T06:24:57.720Z,42.47
2023-02-23T06:27:24.248Z,37.45
2023-02-23T06:29:50.684Z,36.75
2023-02-23T06:32:17.258Z,40.53
2023-02-23T06:34:47.656Z,36.97
2023-02-23T06:37:14.148Z,36.70
2023-02-23T06:39:40.617Z,36.65
2023-02-23T06:42:07.048Z,37.67
2023-02-23T06:44:35.393Z,37.38
2023-02-23T06:47:05.629Z,41.13
2023-02-23T06:49:32.181Z,41.97
2023-02-23T06:51:58.645Z,38.38
2023-02-23T06:54:25.108Z,38.33
2023-02-23T06:56:53.192Z,41.60
2023-02-23T06:59:19.717Z,42.65
2023-02-23T07:01:46.801Z,43.75
2023-02-23T07:04:16.285Z,44.65
2023-02-23T07:06:43.147Z,44.08
2023-02-23T07:09:09.638Z,40.20
2023-02-23T07:11:36.063Z,47.33
2023-02-23T07:14:02.519Z,46.90
2023-02-23T07:16:29.484Z,50.80
2023-02-23T07:18:56.499Z,49.45
2023-02-23T07:21:23.222Z,45.42
2023-02-23T07:23:49.774Z,46.65
2023-02-23T07:26:17.059Z,47.13
2023-02-23T07:28:44.152Z,50.55
2023-02-23T07:31:10.689Z,49.08
2023-02-23T07:33:37.172Z,50.88
2023-02-23T07:36:04.209Z,44.08
2023-02-23T07:38:30.670Z,50.65
2023-02-23T07:40:57.112Z,50.13
2023-02-23T07:43:24.176Z,52.53
2023-02-23T07:45:51.581Z,55.15
2023-02-23T07:48:18.598Z,56.55
2023-02-23T07:50:44.987Z,54.92
2023-02-23T07:53:11.561Z,51.13
2023-02-23T07:55:38.665Z,57.72
2023-02-23T07:58:06.415Z,53.97
2023-02-23T08:00:34.023Z,50.63
2023-02-23T08:03:01.337Z,57.53
2023-02-23T08:05:28.293Z,53.88
2023-02-23T08:07:56.261Z,57.72
2023-02-23T08:10:22.781Z,54.75
2023-02-23T08:12:49.257Z,65.55
2023-02-23T08:15:15.980Z,57.58
2023-02-23T08:17:43.414Z,60.78
2023-02-23T08:20:10.625Z,59.55
2023-02-23T08:22:48.339Z,62.30
2023-02-23T08:25:16.173Z,64.03
2023-02-23T08:27:42.663Z,62.03
2023-02-23T08:30:09.890Z,63.20
2023-02-23T08:32:36.451Z,64.97
2023-02-23T08:35:03.378Z,62.47
2023-02-23T08:37:30.376Z,63.22
2023-02-23T08:39:57.466Z,60.33
2023-02-23T08:42:24.315Z,60.53
2023-02-23T08:44:50.899Z,64.68
2023-02-23T08:47:23.429Z,66.90
2023-02-23T08:49:50.627Z,60.60
2023-02-23T08:52:17.545Z,57.05
2023-02-23T08:54:43.920Z,55.92
2023-02-23T08:57:12.523Z,57.63
2023-02-23T08:59:41.153Z,65.00
2023-02-23T09:02:12.371Z,64.53
2023-02-23T09:04:41.751Z,61.42
2023-02-23T09:07:18.275Z,65.32
2023-02-23T09:09:44.698Z,68.35
2023-02-23T09:12:11.125Z,61.08
2023-02-23T09:14:37.558Z,63.78
2023-02-23T09:17:04.166Z,62.33
2023-02-23T09:19:31.014Z,64.10
2023-02-23T09:21:57.470Z,58.70
2023-02-23T09:24:23.910Z,64.80
2023-02-23T09:26:50.437Z,58.97
2023-02-23T09:29:16.906Z,60.58
2023-02-23T09:31:43.650Z,62.97
2023-02-23T09:34:12.647Z,61.08
2023-02-23T09:36:39.142Z,62.13
2023-02-23T09:39:05.568Z,61.63
2023-02-23T09:41:53.510Z,62.80
2023-02-23T09:44:22.895Z,57.80
2023-02-23T09:46:58.357Z,59.13
2023-02-23T09:49:29.685Z,57.85
2023-02-23T09:51:59.465Z,53.97
2023-02-23T09:54:30.691Z,58.70
2023-02-23T09:56:58.326Z,60.78
2023-02-23T09:59:25.738Z,54.92
2023-02-23T10:02:05.401Z,57.13
2023-02-23T10:04:38.351Z,56.35
2023-02-23T10:07:21.439Z,53.05
2023-02-23T10:10:16.486Z,49.38
2023-02-23T10:13:13.238Z,49.80
2023-02-23T10:16:03.784Z,48.97
2023-02-23T10:18:54.650Z,46.95
2023-02-23T10:21:32.293Z,41.58
2023-02-23T10:24:09.485Z,42.28
2023-02-23T10:26:44.214Z,47.75
2023-02-23T10:29:34.798Z,44.88
2023-02-23T10:32:27.559Z,43.97
2023-02-23T10:34:56.498Z,44.92
2023-02-23T10:37:24.370Z,44.30
2023-02-23T10:39:51.553Z,38.88
2023-02-23T10:42:23.049Z,40.30
2023-02-23T10:44:50.224Z,39.47
2023-02-23T10:47:21.075Z,41.20
2023-02-23T10:49:54.020Z,37.33
2023-02-23T10:52:28.520Z,34.13
2023-02-23T10:54:55.064Z,31.48
2023-02-23T10:57:29.125Z,33.38
2023-02-23T11:00:17.194Z,30.08
2023-02-23T11:02:45.255Z,29.13
2023-02-23T11:05:33.510Z,28.58
2023-02-23T11:08:30.831Z,28.25
2023-02-23T11:10:57.275Z,25.88
2023-02-23T11:13:27.465Z,24.75
2023-02-23T11:16:00.687Z,27.65
2023-02-23T11:18:28.409Z,25.43
2023-02-23T11:20:55.748Z,28.15
2023-02-23T11:23:34.532Z,29.73
2023-02-23T11:26:04.118Z,31.02
2023-02-23T11:28:37.620Z,27.27
2023-02-23T11:31:14.091Z,28.23
2023-02-23T11:33:40.937Z,32.38
2023-02-23T11:36:15.084Z,30.77
2023-02-23T11:38:41.923Z,31.13
2023-02-23T11:41:24.345Z,37.88
2023-02-23T11:43:56.206Z,41.90
2023-02-23T11:46:23.830Z,50.88
2023-02-23T11:48:55.077Z,51.30
2023-02-23T11:51:28.763Z,50.58
2023-02-23T11:53:55.403Z,58.00
2023-02-23T11:56:25.628Z,52.83
2023-02-23T11:59:08.329Z,57.85
2023-02-23T12:01:45.544Z,60.38
2023-02-23T12:04:30.177Z,57.55
2023-02-23T12:07:29.578Z,61.50
2023-02-23T12:10:13.418Z,63.50
2023-02-23T12:13:08.987Z,73.10
2023-02-23T12:15:53.259Z,70.15
2023-02-23T12:18:47.060Z,69.32
2023-02-23T12:21:38.620Z,79.53
2023-02-23T12:24:23.693Z,83.63
2023-02-23T12:27:01.932Z,88.95
2023-02-23T12:29:48.997Z,91.15
2023-02-23T12:32:20.252Z,88.38
2023-02-23T12:35:04.840Z,96.15
2023-02-23T12:37:49.382Z,88.40
2023-02-23T12:40:28.024Z,95.78
2023-02-23T12:43:02.476Z,116.00
2023-02-23T12:45:50.293Z,116.93
2023-02-23T12:48:35.537Z,107.00
2023-02-23T12:51:12.427Z,111.97
2023-02-23T12:53:44.139Z,118.75
2023-02-23T12:56:35.650Z,117.60
2023-02-23T12:59:27.289Z,107.95
2023-02-23T13:01:59.484Z,121.47
2023-02-23T13:05:03.613Z,119.13
2023-02-23T13:07:44.737Z,118.83
2023-02-23T13:10:32.992Z,107.20
2023-02-23T13:13:18.441Z,127.18
2023-02-23T13:15:59.474Z,115.00
2023-02-23T13:18:41.701Z,118.63
2023-02-23T13:21:22.454Z,113.60
2023-02-23T13:24:19.045Z,112.20
2023-02-23T13:26:53.532Z,107.82
2023-02-23T13:29:41.659Z,112.53
2023-02-23T13:32:14.746Z,116.32
2023-02-23T13:34:52.493Z,118.93
2023-02-23T13:37:26.364Z,116.95
2023-02-23T13:40:03.461Z,127.68
2023-02-23T13:42:36.842Z,128.07
2023-02-23T13:45:35.558Z,133.57
2023-02-23T13:48:25.677Z,131.93
2023-02-23T13:51:02.180Z,133.15
2023-02-23T13:53:46.913Z,133.57
2023-02-23T13:56:19.940Z,124.35
2023-02-23T13:58:57.671Z,122.57
2023-02-23T14:01:32.206Z,118.70
2023-02-23T14:04:02.917Z,119.82
2023-02-23T14:06:33.178Z,119.35
2023-02-23T14:09:11.795Z,131.00
2023-02-23T14:11:50.876Z,116.45
2023-02-23T14:14:33.040Z,117.15
2023-02-23T14:17:11.930Z,120.15
2023-02-23T14:19:41.641Z,117.43
2023-02-23T14:22:14.225Z,111.75
2023-02-23T14:24:40.702Z,123.55
2023-02-23T14:27:38.446Z,115.20
2023-02-23T14:30:19.784Z,113.07
2023-02-23T14:32:48.534Z,110.47
2023-02-23T14:35:33.166Z,114.10
2023-02-23T14:38:05.104Z,108.40
2023-02-23T14:40:40.372Z,116.07
2023-02-23T14:43:32.666Z,115.80
2023-02-23T14:46:05.677Z,116.40
2023-02-23T14:48:36.497Z,114.63
2023-02-23T14:51:23.200Z,104.78
2023-02-23T14:53:53.437Z,103.63
2023-02-23T14:56:26.207Z,109.13
2023-02-23T14:58:58.746Z,104.78
2023-02-23T15:01:39.338Z,111.38
2023-02-23T15:04:14.435Z,112.72
2023-02-23T15:06:42.540Z,113.47
2023-02-23T15:09:17.932Z,105.85
2023-02-23T15:11:48.510Z,116.65
2023-02-23T15:14:27.477Z,100.15
2023-02-23T15:16:56.312Z,106.45
2023-02-23T15:19:35.945Z,111.00
2023-02-23T15:22:05.263Z,116.38
2023-02-23T15:24:47.667Z,106.68
2023-02-23T15:27:29.279Z,111.13
2023-02-23T15:29:56.846Z,109.18
2023-02-23T15:32:26.224Z,103.95
2023-02-23T15:34:55.974Z,99.45
2023-02-23T15:37:39.371Z,107.70
2023-02-23T15:40:26.947Z,113.28
2023-02-23T15:43:00.616Z,107.30
2023-02-23T15:45:30.087Z,104.15
2023-02-23T15:48:00.120Z,105.43
2023-02-23T15:50:37.120Z,108.30
2023-02-23T15:53:13.543Z,107.18
2023-02-23T15:55:44.295Z,104.20
2023-02-23T15:58:22.392Z,105.10
2023-02-23T16:01:09.595Z,102.55
2023-02-23T16:03:44.393Z,95.30
2023-02-23T16:06:25.216Z,99.00
2023-02-23T16:08:59.200Z,99.13
2023-02-23T16:11:26.819Z,99.63
2023-02-23T16:13:54.169Z,103.55
2023-02-23T16:16:25.116Z,95.28
2023-02-23T16:18:54.846Z,93.78
2023-02-23T16:21:24.737Z,98.75
2023-02-23T16:23:54.436Z,93.85
2023-02-23T16:26:31.624Z,97.50
2023-02-23T16:29:00.883Z,100.88
2023-02-23T16:32:01.313Z,106.72
2023-02-23T16:34:34.342Z,98.28
2023-02-23T16:37:15.593Z,100.65
2023-02-23T16:39:42.127Z,106.65
2023-02-23T16:42:21.106Z,107.05
2023-02-23T16:44:47.647Z,97.43
2023-02-23T16:47:23.547Z,99.00
2023-02-23T16:49:50.605Z,90.18
2023-02-23T16:52:22.813Z,93.53
2023-02-23T16:54:53.851Z,97.70
2023-02-23T16:57:27.323Z,95.45
2023-02-23T16:59:55.050Z,96.55
2023-02-23T17:02:24.200Z,90.50
2023-02-23T17:04:51.846Z,93.35
2023-02-23T17:07:22.793Z,92.47
2023-02-23T17:09:50.087Z,89.47
2023-02-23T17:12:19.962Z,84.47
2023-02-23T17:14:46.423Z,85.35
2023-02-23T17:17:17.387Z,89.60
2023-02-23T17:19:45.941Z,89.72
2023-02-23T17:22:13.230Z,89.88
2023-02-23T17:24:40.701Z,88.90
2023-02-23T17:27:07.216Z,86.68
2023-02-23T17:29:33.695Z,87.07
2023-02-23T17:32:01.165Z,90.75
2023-02-23T17:34:29.078Z,80.90
2023-02-23T17:36:55.603Z,86.18
2023-02-23T17:39:22.451Z,77.30
2023-02-23T17:41:48.970Z,79.82
2023-02-23T17:44:15.425Z,71.57
2023-02-23T17:46:41.954Z,60.00
2023-02-23T17:49:08.526Z,55.90
2023-02-23T17:51:36.211Z,53.05
2023-02-23T17:54:02.749Z,40.40
2023-02-23T17:56:31.485Z,36.22
2023-02-23T17:58:57.914Z,35.20
2023-02-23T18:01:24.540Z,35.85
2023-02-23T18:03:51.180Z,38.78
2023-02-23T18:06:17.819Z,37.10
2023-02-23T18:08:45.238Z,42.67
2023-02-23T18:11:11.697Z,35.58
2023-02-23T18:13:38.405Z,47.50
2023-02-23T18:16:09.942Z,51.40
2023-02-23T18:18:39.133Z,48.33
2023-02-23T18:21:12.456Z,49.00
2023-02-23T18:23:39.105Z,53.05
2023-02-23T18:26:12.055Z,48.58
2023-02-23T18:28:40.937Z,40.50
2023-02-23T18:31:07.512Z,40.60
2023-02-23T18:33:35.764Z,43.78
2023-02-23T18:36:03.790Z,37.75
2023-02-23T18:38:30.382Z,41.05
2023-02-23T18:40:57.266Z,40.25
2023-02-23T18:43:23.742Z,38.90
2023-02-23T18:45:50.186Z,36.10
2023-02-23T18:48:16.656Z,44.47
2023-02-23T18:50:43.085Z,44.58
2023-02-23T18:53:10.904Z,40.60
2023-02-23T18:55:38.555Z,37.80
2023-02-23T18:58:05.745Z,38.83
2023-02-23T19:00:39.927Z,34.58
2023-02-23T19:03:06.819Z,36.90
2023-02-23T19:05:34.467Z,48.80
2023-02-23T19:08:00.890Z,33.33
2023-02-23T19:10:28.660Z,42.60
2023-02-23T19:12:55.091Z,35.70
2023-02-23T19:15:22.058Z,32.35
2023-02-23T19:17:48.490Z,29.40
2023-02-23T19:20:15.115Z,30.85
2023-02-23T19:22:42.048Z,29.70
2023-02-23T19:25:14.457Z,36.90
2023-02-23T19:27:41.582Z,27.92
2023-02-23T19:30:10.058Z,25.88
2023-02-23T19:32:39.466Z,27.73
2023-02-23T19:35:08.253Z,27.83
2023-02-23T19:37:34.784Z,30.25
2023-02-23T19:40:03.230Z,29.65
2023-02-23T19:42:32.572Z,32.08
2023-02-23T19:44:59.499Z,24.50
2023-02-23T19:47:26.154Z,29.33
2023-02-23T19:49:52.727Z,33.03
2023-02-23T19:52:19.250Z,28.85
2023-02-23T19:54:45.684Z,20.45
2023-02-23T19:57:12.258Z,25.13
2023-02-23T19:59:38.790Z,34.80
2023-02-23T20:02:05.464Z,30.40
2023-02-23T20:04:32.156Z,35.05
2023-02-23T20:06:58.717Z,28.60
2023-02-23T20:09:25.257Z,25.85
2023-02-23T20:11:51.739Z,28.85
2023-02-23T20:14:18.211Z,30.05
2023-02-23T20:16:44.854Z,27.88
2023-02-23T20:19:11.841Z,24.90
2023-02-23T20:21:39.587Z,33.67
2023-02-23T20:24:06.377Z,28.45
2023-02-23T20:26:35.391Z,22.73
2023-02-23T20:29:04.841Z,31.38
2023-02-23T20:31:35.268Z,35.35
2023-02-23T20:34:05.486Z,24.98
2023-02-23T20:36:32.351Z,30.73
2023-02-23T20:38:59.261Z,27.15
2023-02-23T20:41:27.973Z,27.08
2023-02-23T20:43:55.542Z,26.30
2023-02-23T20:46:22.155Z,26.02
2023-02-23T20:48:48.968Z,26.08
2023-02-23T20:51:19.340Z,26.45
2023-02-23T20:53:47.933Z,24.98
2023-02-23T20:56:17.193Z,28.95
2023-02-23T20:58:44.140Z,21.85
2023-02-23T21:01:15.602Z,21.08
2023-02-23T21:03:42.783Z,21.55
2023-02-23T21:06:09.242Z,21.55
2023-02-23T21:08:39.886Z,25.85
2023-02-23T21:11:08.730Z,21.95
2023-02-23T21:13:36.208Z,19.10
2023-02-23T21:16:03.212Z,25.73
2023-02-23T21:18:32.600Z,27.60
2023-02-23T21:21:09.538Z,18.90
2023-02-23T21:23:38.345Z,19.67
2023-02-23T21:26:14.151Z,19.58
2023-02-23T21:28:42.948Z,30.83
2023-02-23T21:31:12.400Z,16.13
2023-02-23T21:33:41.292Z,22.73
2023-02-23T21:36:12.445Z,23.40
2023-02-23T21:38:41.239Z,18.77
2023-02-23T21:41:08.757Z,17.15
2023-02-23T21:43:36.884Z,21.92
2023-02-23T21:46:13.252Z,19.20
2023-02-23T21:48:40.081Z,25.27
2023-02-23T21:51:11.341Z,24.23
2023-02-23T21:53:38.388Z,17.42
2023-02-23T21:56:16.551Z,21.58
2023-02-23T21:58:48.644Z,20.83
2023-02-23T22:01:21.045Z,22.42
2023-02-23T22:03:48.572Z,21.13
2023-02-23T22:06:20.704Z,15.30
2023-02-23T22:08:50.542Z,20.52
2023-02-23T22:11:20.431Z,18.90
2023-02-23T22:13:49.111Z,22.35
2023-02-23T22:16:18.592Z,23.65
2023-02-23T22:18:45.304Z,24.42
2023-02-23T22:21:12.608Z,14.13
2023-02-23T22:23:43.841Z,20.92
2023-02-23T22:26:10.768Z,19.45
2023-02-23T22:28:37.201Z,22.30
2023-02-23T22:31:09.355Z,25.13
2023-02-23T22:33:37.578Z,19.02
2023-02-23T22:36:12.931Z,20.05
2023-02-23T22:38:41.297Z,17.95
2023-02-23T22:41:11.613Z,20.90
2023-02-23T22:43:40.152Z,22.75
2023-02-23T22:46:07.862Z,16.83
2023-02-23T22:48:35.571Z,13.98
2023-02-23T22:51:02.582Z,18.38
2023-02-23T22:53:29.562Z,19.98
2023-02-23T22:55:56.753Z,17.40
2023-02-23T22:58:26.217Z,16.90
2023-02-23T23:01:02.766Z,19.08
2023-02-23T23:03:52.202Z,15.63
2023-02-23T23:06:22.984Z,21.15
2023-02-23T23:08:52.333Z,16.88
2023-02-23T23:11:21.781Z,20.80
2023-02-23T23:13:52.242Z,20.65
2023-02-23T23:16:31.233Z,21.40
2023-02-23T23:19:11.993Z,14.02
2023-02-23T23:21:40.853Z,14.55
2023-02-23T23:24:08.642Z,15.15
2023-02-23T23:26:39.611Z,19.80
2023-02-23T23:29:10.034Z,21.00
2023-02-23T23:31:38.377Z,16.88
2023-02-23T23:34:09.294Z,17.17
2023-02-23T23:36:49.186Z,19.92
2023-02-23T23:39:17.125Z,16.50
2023-02-23T23:41:46.720Z,16.83
2023-02-23T23:44:14.355Z,13.95
2023-02-23T23:46:43.319Z,19.02
2023-02-23T23:49:12.856Z,17.63
2023-02-23T23:51:44.712Z,21.15
2023-02-23T23:54:14.024Z,23.55
2023-02-23T23:56:41.249Z,18.27
2023-02-23T23:59:16.306Z,19.55
